Time;durP1;ratioP1;P1;durP2;ratioP2;P2;SDS_P1;SDS_P2;PMS_P1;PMS_P2;Temp;Humidity;BMP_temperature;BMP_pressure;BME280_temperature;BME280_humidity;BME280_pressure;Samples;Min_cycle;Max_cycle;Signal;HPM_P1;HPM_P2
2022/03/10 00:00:19;;;;;;;6.22;3.70;;;;;;;;;;4994005;28;20387;-72
2022/03/10 00:02:53;;;;;;;8.75;4.20;;;;;;;;;;4977468;28;20114;-70
2022/03/10 00:05:21;;;;;;;12.70;5.00;;;;;;;;;;4993977;28;20038;-70
2022/03/10 00:07:49;;;;;;;10.80;4.65;;;;;;;;;;4994100;28;20042;-75
2022/03/10 00:10:16;;;;;;;4.53;3.65;;;;;;;;;;4976763;28;20428;-71
2022/03/10 00:12:48;;;;;;;6.88;4.20;;;;;;;;;;4977153;28;20042;-70
2022/03/10 00:15:16;;;;;;;4.97;3.67;;;;;;;;;;4975977;28;20141;-72
2022/03/10 00:17:43;;;;;;;7.63;4.15;;;;;;;;;;4976473;28;20066;-70
2022/03/10 00:20:12;;;;;;;5.55;3.60;;;;;;;;;;4994112;28;20121;-72
2022/03/10 00:22:44;;;;;;;5.70;3.17;;;;;;;;;;4976741;28;20506;-71
2022/03/10 00:25:11;;;;;;;6.15;3.00;;;;;;;;;;4993747;28;20149;-71
2022/03/10 00:27:39;;;;;;;4.72;3.15;;;;;;;;;;4993641;28;20045;-71
2022/03/10 00:30:08;;;;;;;6.45;3.30;;;;;;;;;;4993378;28;20422;-70
2022/03/10 00:32:45;;;;;;;7.85;2.85;;;;;;;;;;4994074;28;20507;-70
2022/03/10 00:35:18;;;;;;;5.93;2.85;;;;;;;;;;4976031;28;20509;-72
2022/03/10 00:37:52;;;;;;;5.97;3.60;;;;;;;;;;4975900;28;20089;-71
2022/03/10 00:40:21;;;;;;;5.80;3.05;;;;;;;;;;4975996;28;20090;-71
2022/03/10 00:42:49;;;;;;;5.65;2.83;;;;;;;;;;4993561;28;20042;-75
2022/03/10 00:45:17;;;;;;;4.43;2.72;;;;;;;;;;4975941;28;20086;-72
2022/03/10 00:47:47;;;;;;;3.13;2.45;;;;;;;;;;4975637;28;20137;-72
2022/03/10 00:50:14;;;;;;;5.65;2.63;;;;;;;;;;4976210;28;20046;-71
2022/03/10 00:52:42;;;;;;;7.00;3.20;;;;;;;;;;4993397;28;20501;-75
2022/03/10 00:55:10;;;;;;;7.10;3.00;;;;;;;;;;4975913;28;20038;-70
2022/03/10 00:57:37;;;;;;;5.93;3.13;;;;;;;;;;4976028;28;20045;-70
2022/03/10 01:00:06;;;;;;;7.30;3.00;;;;;;;;;;4975751;28;20046;-70
2022/03/10 01:02:34;;;;;;;7.20;2.75;;;;;;;;;;4975942;28;20045;-75
2022/03/10 01:05:02;;;;;;;5.10;2.80;;;;;;;;;;4993087;28;20457;-72
2022/03/10 01:07:30;;;;;;;6.05;2.65;;;;;;;;;;4991886;28;20137;-70
2022/03/10 01:09:58;;;;;;;5.25;2.75;;;;;;;;;;4993178;28;20047;-71
2022/03/10 01:12:25;;;;;;;7.80;3.00;;;;;;;;;;4975774;28;20053;-70
2022/03/10 01:14:54;;;;;;;5.57;2.53;;;;;;;;;;4992960;28;20039;-75
2022/03/10 01:17:24;;;;;;;4.40;2.60;;;;;;;;;;4975654;28;20046;-71
2022/03/10 01:19:52;;;;;;;5.07;2.80;;;;;;;;;;4992944;28;20042;-72
2022/03/10 01:22:20;;;;;;;3.42;2.78;;;;;;;;;;4975872;28;20121;-71
2022/03/10 01:24:48;;;;;;;4.57;2.90;;;;;;;;;;4975312;28;20050;-72
2022/03/10 01:27:16;;;;;;;4.25;2.80;;;;;;;;;;4992648;28;20581;-72
2022/03/10 01:29:44;;;;;;;5.20;2.75;;;;;;;;;;4975136;28;20050;-75
2022/03/10 01:32:12;;;;;;;5.55;2.67;;;;;;;;;;4975333;28;20049;-75
2022/03/10 01:34:40;;;;;;;4.95;3.00;;;;;;;;;;4992679;28;20125;-72
2022/03/10 01:37:08;;;;;;;4.30;2.45;;;;;;;;;;4992317;28;20067;-73
2022/03/10 01:39:35;;;;;;;4.85;2.92;;;;;;;;;;4974797;28;20038;-72
2022/03/10 01:42:06;;;;;;;4.85;2.80;;;;;;;;;;4975189;28;20053;-75
2022/03/10 01:44:35;;;;;;;6.35;3.22;;;;;;;;;;4992694;28;20042;-71
2022/03/10 01:47:03;;;;;;;6.93;2.70;;;;;;;;;;4992780;28;20042;-72
2022/03/10 01:49:32;;;;;;;7.47;3.00;;;;;;;;;;4975009;28;20098;-75
2022/03/10 01:52:00;;;;;;;6.28;3.10;;;;;;;;;;4992558;28;20065;-73
2022/03/10 01:54:28;;;;;;;7.18;2.78;;;;;;;;;;4992292;28;20050;-73
2022/03/10 01:56:55;;;;;;;5.55;2.50;;;;;;;;;;4976030;28;20050;-71
2022/03/10 01:59:23;;;;;;;6.57;3.03;;;;;;;;;;4979145;28;20069;-75
2022/03/10 02:01:54;;;;;;;6.38;2.85;;;;;;;;;;4978349;28;20050;-74
2022/03/10 02:04:22;;;;;;;4.65;2.55;;;;;;;;;;4995137;28;20355;-72
2022/03/10 02:06:51;;;;;;;5.80;2.80;;;;;;;;;;4996169;28;20065;-71
2022/03/10 02:12:07;;;;;;;2.90;2.63;;;;;;;;;;4995256;28;20046;-71
2022/03/10 02:17:22;;;;;;;3.30;2.42;;;;;;;;;;4990752;28;20047;-74
2022/03/10 02:19:55;;;;;;;5.20;2.80;;;;;;;;;;4976485;28;20072;-71
2022/03/10 02:22:23;;;;;;;6.47;2.70;;;;;;;;;;4976300;28;20039;-74
2022/03/10 02:24:51;;;;;;;5.40;2.70;;;;;;;;;;4976562;28;20043;-74
2022/03/10 02:27:20;;;;;;;6.45;2.58;;;;;;;;;;4959161;28;20043;-73
2022/03/10 02:29:55;;;;;;;8.40;3.22;;;;;;;;;;4976082;28;20043;-74
2022/03/10 02:32:23;;;;;;;3.20;2.58;;;;;;;;;;4958896;28;20043;-72
2022/03/10 02:34:50;;;;;;;6.43;2.80;;;;;;;;;;4958977;28;20043;-74
2022/03/10 02:37:19;;;;;;;9.98;2.70;;;;;;;;;;4976351;28;20066;-71
2022/03/10 02:39:47;;;;;;;3.47;2.50;;;;;;;;;;4975657;28;20069;-73
2022/03/10 02:42:16;;;;;;;5.47;3.20;;;;;;;;;;4976385;28;20043;-71
2022/03/10 02:44:48;;;;;;;7.78;3.05;;;;;;;;;;4958783;28;20435;-71
2022/03/10 02:47:18;;;;;;;5.07;2.90;;;;;;;;;;4975984;28;20053;-71
2022/03/10 02:49:46;;;;;;;4.78;2.95;;;;;;;;;;4976066;28;20074;-71
2022/03/10 02:52:13;;;;;;;4.80;2.80;;;;;;;;;;4975717;28;20499;-71
2022/03/10 02:54:44;;;;;;;9.57;2.92;;;;;;;;;;4958476;28;20047;-71
2022/03/10 02:57:12;;;;;;;4.45;2.65;;;;;;;;;;4976033;28;20047;-72
2022/03/10 02:59:40;;;;;;;4.50;2.67;;;;;;;;;;4976053;28;20043;-71
2022/03/10 03:02:07;;;;;;;6.72;2.78;;;;;;;;;;4974738;28;20122;-74
2022/03/10 03:04:35;;;;;;;5.97;2.75;;;;;;;;;;4974436;28;20055;-74
2022/03/10 03:07:05;;;;;;;5.18;2.63;;;;;;;;;;4976005;28;20519;-73
2022/03/10 03:09:33;;;;;;;4.47;2.90;;;;;;;;;;4976128;28;20066;-71
2022/03/10 03:12:01;;;;;;;5.90;2.90;;;;;;;;;;4974918;28;20039;-72
2022/03/10 03:14:29;;;;;;;5.20;2.65;;;;;;;;;;4974342;28;20039;-71
2022/03/10 03:16:57;;;;;;;4.47;2.88;;;;;;;;;;4976847;28;20043;-74
2022/03/10 03:19:25;;;;;;;8.10;2.92;;;;;;;;;;4993953;28;20095;-73
2022/03/10 03:21:53;;;;;;;4.20;2.50;;;;;;;;;;4993917;28;20042;-72
2022/03/10 03:24:20;;;;;;;3.58;2.90;;;;;;;;;;4994952;28;20129;-71
2022/03/10 03:26:48;;;;;;;6.75;2.72;;;;;;;;;;4978075;28;20402;-74
2022/03/10 03:29:17;;;;;;;7.00;3.13;;;;;;;;;;4994375;28;20045;-74
2022/03/10 03:31:49;;;;;;;5.25;3.10;;;;;;;;;;4994525;28;20117;-71
2022/03/10 03:34:16;;;;;;;8.63;4.07;;;;;;;;;;4984714;28;20117;-74
2022/03/10 03:36:45;;;;;;;4.85;3.42;;;;;;;;;;4994532;28;20490;-74
2022/03/10 03:39:13;;;;;;;4.70;3.40;;;;;;;;;;5009474;28;20044;-71
2022/03/10 03:41:41;;;;;;;5.40;3.08;;;;;;;;;;4994254;28;20042;-74
2022/03/10 03:44:09;;;;;;;5.40;3.10;;;;;;;;;;4992761;28;20046;-73
2022/03/10 03:46:38;;;;;;;5.93;3.00;;;;;;;;;;4976782;28;20046;-74
2022/03/10 03:49:07;;;;;;;9.30;3.22;;;;;;;;;;5009356;28;20042;-74
2022/03/10 03:51:35;;;;;;;4.47;2.70;;;;;;;;;;4992495;28;20486;-72
2022/03/10 03:54:05;;;;;;;4.65;2.78;;;;;;;;;;4994353;28;20498;-71
2022/03/10 03:56:34;;;;;;;4.07;2.70;;;;;;;;;;4994184;28;20486;-74
2022/03/10 03:59:01;;;;;;;6.38;3.20;;;;;;;;;;4993955;28;20486;-75
2022/03/10 04:01:30;;;;;;;4.15;2.92;;;;;;;;;;4994308;28;20035;-72
2022/03/10 04:04:01;;;;;;;8.10;3.05;;;;;;;;;;5008416;28;20034;-73
2022/03/10 04:06:29;;;;;;;5.45;2.60;;;;;;;;;;5009071;28;20055;-71
2022/03/10 04:08:56;;;;;;;3.30;2.55;;;;;;;;;;4994027;28;20049;-74
2022/03/10 04:11:24;;;;;;;6.10;3.90;;;;;;;;;;4992728;28;20046;-72
2022/03/10 04:13:52;;;;;;;6.85;4.00;;;;;;;;;;4993914;28;20119;-71
2022/03/10 04:16:20;;;;;;;11.00;4.05;;;;;;;;;;5008638;28;20047;-73
2022/03/10 04:18:48;;;;;;;7.82;3.38;;;;;;;;;;4977050;28;20493;-74
2022/03/10 04:21:17;;;;;;;3.90;2.65;;;;;;;;;;4957186;28;20193;-72
2022/03/10 04:23:45;;;;;;;5.85;2.97;;;;;;;;;;4974367;28;20154;-74
2022/03/10 04:26:14;;;;;;;4.38;3.13;;;;;;;;;;4974236;28;20085;-73
2022/03/10 04:28:41;;;;;;;8.77;2.90;;;;;;;;;;4974287;28;20545;-73
2022/03/10 04:31:09;;;;;;;6.70;3.45;;;;;;;;;;4974138;28;20038;-74
2022/03/10 04:33:37;;;;;;;6.38;3.00;;;;;;;;;;4956579;28;20057;-74
2022/03/10 04:36:05;;;;;;;5.05;2.67;;;;;;;;;;4956996;28;20509;-71
2022/03/10 04:38:33;;;;;;;6.03;3.10;;;;;;;;;;4972951;28;20050;-74
2022/03/10 04:41:00;;;;;;;8.32;2.70;;;;;;;;;;4973654;28;20462;-71
2022/03/10 04:43:28;;;;;;;4.15;2.47;;;;;;;;;;4973958;28;20046;-71
2022/03/10 04:45:55;;;;;;;6.70;2.95;;;;;;;;;;4973817;28;20582;-75
2022/03/10 04:48:25;;;;;;;3.47;2.55;;;;;;;;;;4973670;28;20043;-74
2022/03/10 04:50:52;;;;;;;4.97;2.75;;;;;;;;;;4974274;28;20042;-71
2022/03/10 04:53:21;;;;;;;3.80;2.60;;;;;;;;;;4973480;28;20074;-72
2022/03/10 04:55:48;;;;;;;8.35;2.90;;;;;;;;;;4973709;28;20034;-74
2022/03/10 04:58:17;;;;;;;3.78;2.88;;;;;;;;;;4973968;28;20049;-74
2022/03/10 05:00:45;;;;;;;4.10;2.88;;;;;;;;;;4973940;28;20043;-71
2022/03/10 05:03:13;;;;;;;5.47;2.95;;;;;;;;;;4957137;28;20121;-71
2022/03/10 05:05:41;;;;;;;6.00;3.13;;;;;;;;;;4973575;28;20086;-71
2022/03/10 05:08:09;;;;;;;4.03;2.83;;;;;;;;;;4973871;28;20050;-73
2022/03/10 05:10:36;;;;;;;6.95;3.28;;;;;;;;;;4972799;28;20082;-71
2022/03/10 05:13:04;;;;;;;4.78;2.60;;;;;;;;;;4957116;28;20410;-74
2022/03/10 05:15:33;;;;;;;7.43;2.80;;;;;;;;;;4973656;28;20494;-74
2022/03/10 05:18:03;;;;;;;4.93;3.30;;;;;;;;;;4966127;28;20050;-73
2022/03/10 05:20:31;;;;;;;7.55;3.25;;;;;;;;;;4991913;28;20050;-74
2022/03/10 05:23:00;;;;;;;5.25;3.08;;;;;;;;;;4993395;28;20042;-71
2022/03/10 05:25:39;;;;;;;6.63;3.58;;;;;;;;;;4993012;28;20039;-71
2022/03/10 05:28:11;;;;;;;5.13;3.30;;;;;;;;;;4992999;28;20078;-73
2022/03/10 05:30:38;;;;;;;5.80;2.97;;;;;;;;;;4991593;28;20046;-71
2022/03/10 05:33:06;;;;;;;5.78;2.92;;;;;;;;;;4996285;28;20406;-74
2022/03/10 05:35:33;;;;;;;5.90;2.92;;;;;;;;;;4996952;28;20042;-72
2022/03/10 05:38:01;;;;;;;5.75;2.95;;;;;;;;;;4979453;28;20046;-72
2022/03/10 05:40:28;;;;;;;12.13;3.33;;;;;;;;;;4996555;28;20038;-73
2022/03/10 05:42:56;;;;;;;4.47;2.72;;;;;;;;;;4996849;28;20041;-74
2022/03/10 05:45:25;;;;;;;5.60;2.90;;;;;;;;;;4995441;28;20044;-72
2022/03/10 05:47:54;;;;;;;4.70;3.22;;;;;;;;;;4996794;28;20050;-71
2022/03/10 05:50:22;;;;;;;5.90;3.17;;;;;;;;;;4995408;28;20398;-71
2022/03/10 05:52:51;;;;;;;5.63;3.63;;;;;;;;;;4996331;28;20074;-72
2022/03/10 05:55:18;;;;;;;9.20;4.00;;;;;;;;;;4996471;28;20041;-71
2022/03/10 05:57:47;;;;;;;10.02;4.60;;;;;;;;;;4996537;28;20121;-72
2022/03/10 06:00:15;;;;;;;10.40;4.40;;;;;;;;;;4996330;28;20043;-71
2022/03/10 06:02:43;;;;;;;11.52;4.70;;;;;;;;;;4994518;28;20082;-73
2022/03/10 06:05:11;;;;;;;9.52;4.82;;;;;;;;;;5010344;28;20058;-75
2022/03/10 06:07:38;;;;;;;8.73;5.13;;;;;;;;;;4996199;28;20034;-71
2022/03/10 06:10:06;;;;;;;7.93;5.50;;;;;;;;;;4978900;28;20049;-72
2022/03/10 06:12:34;;;;;;;17.95;5.35;;;;;;;;;;4995942;28;20057;-71
2022/03/10 06:15:03;;;;;;;11.23;4.70;;;;;;;;;;4995906;28;20384;-72
2022/03/10 06:17:30;;;;;;;9.40;4.65;;;;;;;;;;4992866;28;20055;-75
2022/03/10 06:19:58;;;;;;;9.02;4.40;;;;;;;;;;4995898;28;20042;-74
2022/03/10 06:22:33;;;;;;;17.42;4.95;;;;;;;;;;4978605;28;20061;-76
2022/03/10 06:25:01;;;;;;;16.20;4.43;;;;;;;;;;4978154;28;20129;-75
2022/03/10 06:27:28;;;;;;;8.25;4.68;;;;;;;;;;4994936;28;20054;-72
2022/03/10 06:29:56;;;;;;;10.77;5.00;;;;;;;;;;4994008;28;20053;-76
2022/03/10 06:32:24;;;;;;;11.23;4.72;;;;;;;;;;4994511;28;20048;-74
2022/03/10 06:34:53;;;;;;;17.08;4.38;;;;;;;;;;4995803;28;20047;-72
2022/03/10 06:37:21;;;;;;;11.57;4.30;;;;;;;;;;4995697;28;20609;-75
2022/03/10 06:39:48;;;;;;;9.98;4.63;;;;;;;;;;4992406;28;20046;-75
2022/03/10 06:42:16;;;;;;;10.73;5.35;;;;;;;;;;4984710;28;20050;-73
2022/03/10 06:44:44;;;;;;;10.70;5.13;;;;;;;;;;4995213;28;20038;-75
2022/03/10 06:47:14;;;;;;;8.30;4.97;;;;;;;;;;4994714;28;20046;-75
2022/03/10 06:49:43;;;;;;;8.43;4.90;;;;;;;;;;4993927;28;20053;-75
2022/03/10 06:52:11;;;;;;;12.18;5.80;;;;;;;;;;4995105;28;20042;-73
2022/03/10 06:54:39;;;;;;;9.93;5.60;;;;;;;;;;4995094;28;20130;-75
2022/03/10 06:57:07;;;;;;;8.82;4.00;;;;;;;;;;4991983;28;20038;-75
2022/03/10 06:59:35;;;;;;;7.97;5.00;;;;;;;;;;4994132;28;20125;-75
2022/03/10 07:02:03;;;;;;;6.70;3.65;;;;;;;;;;4994309;28;20042;-72
2022/03/10 07:04:38;;;;;;;6.03;3.00;;;;;;;;;;4994126;28;20101;-70
2022/03/10 07:07:07;;;;;;;8.10;3.28;;;;;;;;;;4980219;28;20118;-70
2022/03/10 07:09:34;;;;;;;8.27;3.40;;;;;;;;;;4976016;28;20448;-69
2022/03/10 07:12:02;;;;;;;3.70;2.10;;;;;;;;;;4991217;28;20051;-73
2022/03/10 07:14:30;;;;;;;7.13;2.78;;;;;;;;;;4992475;28;20541;-72
2022/03/10 07:16:58;;;;;;;5.38;2.20;;;;;;;;;;5086148;23;20060;-75
2022/03/10 07:19:25;;;;;;;7.03;2.80;;;;;;;;;;5014352;28;20053;-75
2022/03/10 07:21:53;;;;;;;5.00;3.00;;;;;;;;;;5032791;28;20037;-72
2022/03/10 07:24:21;;;;;;;4.22;2.70;;;;;;;;;;5033164;28;20120;-75
2022/03/10 07:26:52;;;;;;;4.00;2.50;;;;;;;;;;5014658;28;20044;-75
2022/03/10 07:29:20;;;;;;;6.13;2.95;;;;;;;;;;5012584;28;20053;-73
2022/03/10 07:31:47;;;;;;;5.80;2.58;;;;;;;;;;5042398;28;20051;-73
2022/03/10 07:34:15;;;;;;;6.88;2.80;;;;;;;;;;5033537;28;20041;-76
2022/03/10 07:36:43;;;;;;;7.40;3.17;;;;;;;;;;5033988;28;20041;-75
2022/03/10 07:39:11;;;;;;;12.95;3.42;;;;;;;;;;5033881;28;20067;-74
2022/03/10 07:41:41;;;;;;;3.13;2.20;;;;;;;;;;5051325;28;20047;-75
2022/03/10 07:44:09;;;;;;;3.90;2.38;;;;;;;;;;5029263;28;20040;-75
2022/03/10 07:46:36;;;;;;;5.95;2.20;;;;;;;;;;5043547;28;20507;-73
2022/03/10 07:49:04;;;;;;;3.42;2.20;;;;;;;;;;5047189;28;20055;-75
2022/03/10 07:51:36;;;;;;;4.83;2.40;;;;;;;;;;5031015;28;20477;-72
2022/03/10 07:54:03;;;;;;;5.13;2.25;;;;;;;;;;5049615;28;20045;-73
2022/03/10 07:56:31;;;;;;;4.35;2.47;;;;;;;;;;5032348;28;20483;-74
2022/03/10 07:58:59;;;;;;;3.47;2.38;;;;;;;;;;5034952;28;20055;-72
2022/03/10 08:01:26;;;;;;;5.70;2.58;;;;;;;;;;5033802;28;20132;-75
2022/03/10 08:03:57;;;;;;;3.33;2.42;;;;;;;;;;5034776;28;20053;-75
2022/03/10 08:06:26;;;;;;;5.57;2.25;;;;;;;;;;5052239;28;20048;-72
2022/03/10 08:08:55;;;;;;;7.95;2.67;;;;;;;;;;5052794;28;20119;-73
2022/03/10 08:11:22;;;;;;;10.25;3.13;;;;;;;;;;5035144;28;20052;-72
2022/03/10 08:13:52;;;;;;;8.30;2.90;;;;;;;;;;5052930;28;20399;-75
2022/03/10 08:16:21;;;;;;;12.55;3.88;;;;;;;;;;5052777;28;20033;-73
2022/03/10 08:18:49;;;;;;;9.35;3.55;;;;;;;;;;5052616;28;20045;-74
2022/03/10 08:21:17;;;;;;;7.57;3.22;;;;;;;;;;5035058;28;20064;-74
2022/03/10 08:23:44;;;;;;;9.57;3.33;;;;;;;;;;5052986;28;20060;-73
2022/03/10 08:26:14;;;;;;;6.80;3.10;;;;;;;;;;5052858;28;20064;-73
2022/03/10 08:28:42;;;;;;;6.43;3.00;;;;;;;;;;5034988;28;20060;-74
2022/03/10 08:31:10;;;;;;;11.02;2.95;;;;;;;;;;5035279;28;20067;-73
2022/03/10 08:33:38;;;;;;;4.90;2.50;;;;;;;;;;5052679;28;20102;-74
2022/03/10 08:36:06;;;;;;;3.95;2.28;;;;;;;;;;5052633;28;20041;-73
2022/03/10 08:38:37;;;;;;;4.15;2.10;;;;;;;;;;5052939;28;20052;-75
2022/03/10 08:41:06;;;;;;;4.13;2.30;;;;;;;;;;5052459;28;20053;-73
2022/03/10 08:43:37;;;;;;;3.05;2.08;;;;;;;;;;5034597;28;20500;-73
2022/03/10 08:46:08;;;;;;;6.97;2.20;;;;;;;;;;5052459;28;20072;-73
2022/03/10 08:48:39;;;;;;;4.82;2.03;;;;;;;;;;5053132;28;20389;-73
2022/03/10 08:51:07;;;;;;;5.75;3.20;;;;;;;;;;5052785;28;20069;-75
2022/03/10 08:53:36;;;;;;;6.43;2.40;;;;;;;;;;5052024;28;20404;-73
2022/03/10 08:56:07;;;;;;;4.88;2.55;;;;;;;;;;5052335;28;20451;-74
2022/03/10 08:58:34;;;;;;;6.45;2.55;;;;;;;;;;5034433;28;20045;-75
2022/03/10 09:01:02;;;;;;;4.90;2.40;;;;;;;;;;5034310;28;20472;-75
2022/03/10 09:03:48;;;;;;;4.22;2.30;;;;;;;;;;5052519;28;20041;-74
2022/03/10 09:06:16;;;;;;;4.60;2.10;;;;;;;;;;5033835;28;20136;-74
2022/03/10 09:08:45;;;;;;;4.95;2.40;;;;;;;;;;5052508;28;20041;-74
2022/03/10 09:11:12;;;;;;;3.67;2.75;;;;;;;;;;5052385;28;20143;-75
2022/03/10 09:13:43;;;;;;;4.38;2.20;;;;;;;;;;5051961;28;20037;-74
2022/03/10 09:16:10;;;;;;;6.32;3.92;;;;;;;;;;5051719;28;20065;-75
2022/03/10 09:18:38;;;;;;;5.15;2.92;;;;;;;;;;5033979;28;20096;-75
2022/03/10 09:21:07;;;;;;;3.58;2.50;;;;;;;;;;5034563;28;20080;-73
2022/03/10 09:23:34;;;;;;;6.57;2.92;;;;;;;;;;5052215;28;20052;-74
2022/03/10 09:26:03;;;;;;;3.95;2.42;;;;;;;;;;5034841;28;20047;-73
2022/03/10 09:28:30;;;;;;;7.70;2.75;;;;;;;;;;5052066;28;20063;-73
2022/03/10 09:30:58;;;;;;;5.15;2.50;;;;;;;;;;5052017;28;20041;-75
2022/03/10 09:33:26;;;;;;;3.28;2.40;;;;;;;;;;5052019;28;20095;-74
2022/03/10 09:35:53;;;;;;;4.22;2.55;;;;;;;;;;5051802;28;20049;-73
2022/03/10 09:38:21;;;;;;;8.77;2.65;;;;;;;;;;5033985;28;20396;-74
2022/03/10 09:40:54;;;;;;;5.22;2.45;;;;;;;;;;5051457;28;20044;-74
2022/03/10 09:43:22;;;;;;;5.05;2.58;;;;;;;;;;5034539;28;20463;-74
2022/03/10 09:45:51;;;;;;;7.20;2.67;;;;;;;;;;5051848;28;20497;-73
2022/03/10 09:48:19;;;;;;;4.13;2.83;;;;;;;;;;5035074;28;20364;-74
2022/03/10 09:50:47;;;;;;;5.15;2.50;;;;;;;;;;5034152;28;20132;-73
2022/03/10 09:53:19;;;;;;;8.77;2.95;;;;;;;;;;5051550;28;20127;-73
2022/03/10 09:55:46;;;;;;;6.00;2.65;;;;;;;;;;5051896;28;20048;-72
2022/03/10 09:58:14;;;;;;;3.40;2.63;;;;;;;;;;5051597;28;20041;-74
2022/03/10 10:00:41;;;;;;;4.97;2.25;;;;;;;;;;5033625;28;20455;-73
2022/03/10 10:03:10;;;;;;;4.65;2.40;;;;;;;;;;5034498;28;20088;-73
2022/03/10 10:05:39;;;;;;;7.53;2.60;;;;;;;;;;5033855;28;20037;-74
2022/03/10 10:08:14;;;;;;;2.63;2.08;;;;;;;;;;5033691;28;20135;-74
2022/03/10 10:10:43;;;;;;;3.17;2.17;;;;;;;;;;5051600;28;20094;-74
2022/03/10 10:13:35;;;;;;;3.35;2.38;;;;;;;;;;5033510;28;20535;-73
2022/03/10 10:16:05;;;;;;;3.13;2.30;;;;;;;;;;5051720;28;20043;-74
2022/03/10 10:18:41;;;;;;;6.05;2.50;;;;;;;;;;5035154;28;20045;-73
2022/03/10 10:21:18;;;;;;;6.50;2.53;;;;;;;;;;5037327;28;20068;-73
2022/03/10 10:23:50;;;;;;;4.50;2.20;;;;;;;;;;5055309;28;20382;-73
2022/03/10 10:26:19;;;;;;;4.53;2.55;;;;;;;;;;5055054;28;20091;-75
2022/03/10 10:28:51;;;;;;;3.20;2.40;;;;;;;;;;5054426;28;20037;-73
2022/03/10 10:31:21;;;;;;;6.90;2.80;;;;;;;;;;5054815;28;20473;-73
2022/03/10 10:34:06;;;;;;;7.18;2.88;;;;;;;;;;5055037;28;20033;-74
2022/03/10 10:36:36;;;;;;;5.82;2.30;;;;;;;;;;5054882;28;20041;-75
2022/03/10 10:39:07;;;;;;;3.08;2.08;;;;;;;;;;5036965;28;20394;-73
2022/03/10 10:41:35;;;;;;;3.63;2.47;;;;;;;;;;5054577;28;20033;-73
2022/03/10 10:44:04;;;;;;;3.67;1.98;;;;;;;;;;5043319;28;20048;-74
2022/03/10 10:46:41;;;;;;;4.35;2.40;;;;;;;;;;5034864;28;20038;-74
2022/03/10 10:49:16;;;;;;;5.28;2.40;;;;;;;;;;5034798;28;20049;-74
2022/03/10 10:51:44;;;;;;;4.50;2.10;;;;;;;;;;5033505;28;20408;-73
2022/03/10 10:54:23;;;;;;;5.05;2.40;;;;;;;;;;5033393;28;20137;-73
2022/03/10 10:56:53;;;;;;;4.13;2.35;;;;;;;;;;5034392;28;20052;-74
2022/03/10 10:59:34;;;;;;;4.65;2.60;;;;;;;;;;5033358;28;20068;-74
2022/03/10 11:02:10;;;;;;;3.67;2.28;;;;;;;;;;5033269;28;20065;-74
2022/03/10 11:04:39;;;;;;;4.20;2.28;;;;;;;;;;5034280;28;20092;-74
2022/03/10 11:07:10;;;;;;;4.57;2.28;;;;;;;;;;5034388;28;20120;-73
2022/03/10 11:09:39;;;;;;;4.32;2.50;;;;;;;;;;5034464;28;20120;-73
2022/03/10 11:12:09;;;;;;;5.47;2.30;;;;;;;;;;5034496;28;20045;-73
2022/03/10 11:14:37;;;;;;;3.95;2.58;;;;;;;;;;5034159;28;20038;-74
2022/03/10 11:17:05;;;;;;;6.70;2.80;;;;;;;;;;5032055;28;20061;-74
2022/03/10 11:19:34;;;;;;;6.28;2.30;;;;;;;;;;5034251;28;20048;-73
2022/03/10 11:22:23;;;;;;;4.05;2.50;;;;;;;;;;5032798;28;20096;-73
2022/03/10 11:25:03;;;;;;;3.80;2.67;;;;;;;;;;5034009;28;20426;-74
2022/03/10 11:27:40;;;;;;;5.60;2.38;;;;;;;;;;5015766;28;20496;-73
2022/03/10 11:30:08;;;;;;;8.45;2.65;;;;;;;;;;5032476;28;20469;-73
2022/03/10 11:32:36;;;;;;;5.05;2.50;;;;;;;;;;5032537;28;20045;-74
2022/03/10 11:35:06;;;;;;;4.35;2.30;;;;;;;;;;5033726;28;20558;-75
2022/03/10 11:37:43;;;;;;;3.55;2.40;;;;;;;;;;5033815;28;20037;-73
2022/03/10 11:40:12;;;;;;;3.72;2.25;;;;;;;;;;5032309;28;20041;-73
2022/03/10 11:42:42;;;;;;;3.70;2.60;;;;;;;;;;5033311;28;20048;-74
2022/03/10 11:45:11;;;;;;;8.40;2.40;;;;;;;;;;5033487;28;20092;-73
2022/03/10 11:47:39;;;;;;;5.10;2.45;;;;;;;;;;5033679;28;20041;-74
2022/03/10 11:50:26;;;;;;;4.43;2.55;;;;;;;;;;5033875;28;20043;-73
2022/03/10 11:52:58;;;;;;;4.75;2.47;;;;;;;;;;5031881;28;20536;-73
2022/03/10 11:55:50;;;;;;;5.85;2.53;;;;;;;;;;5033418;28;20228;-74
2022/03/10 11:58:20;;;;;;;6.60;2.70;;;;;;;;;;5033304;28;20064;-74
2022/03/10 12:00:49;;;;;;;3.95;2.45;;;;;;;;;;5032929;28;20572;-75
2022/03/10 12:03:28;;;;;;;2.53;2.30;;;;;;;;;;5033160;28;20065;-73
2022/03/10 12:05:55;;;;;;;2.78;2.35;;;;;;;;;;5032788;28;20042;-74
2022/03/10 12:08:24;;;;;;;4.40;2.42;;;;;;;;;;5031507;28;20044;-74
2022/03/10 12:10:52;;;;;;;3.17;2.35;;;;;;;;;;5031833;28;20041;-75
2022/03/10 12:13:28;;;;;;;3.95;2.60;;;;;;;;;;5031667;28;20048;-73
2022/03/10 12:15:58;;;;;;;5.55;2.60;;;;;;;;;;5031338;28;20103;-74
2022/03/10 12:18:28;;;;;;;2.95;2.30;;;;;;;;;;5032478;28;20049;-74
2022/03/10 12:20:57;;;;;;;4.63;2.30;;;;;;;;;;5030602;28;20049;-75
2022/03/10 12:23:26;;;;;;;5.85;2.80;;;;;;;;;;5031102;28;20065;-74
2022/03/10 12:25:59;;;;;;;3.17;2.33;;;;;;;;;;5032412;28;20112;-73
2022/03/10 12:28:29;;;;;;;;;;;;;;;;;;5032911;28;20042;-74
2022/03/10 12:31:19;;;;;;;5.88;2.60;;;;;;;;;;5032687;28;19929;-73
2022/03/10 12:33:55;;;;;;;7.28;2.60;;;;;;;;;;5032740;28;20046;-74
2022/03/10 12:36:27;;;;;;;7.30;2.28;;;;;;;;;;5016469;28;20048;-73
2022/03/10 12:38:57;;;;;;;4.57;2.42;;;;;;;;;;5039713;28;20503;-73
2022/03/10 12:41:33;;;;;;;4.43;2.17;;;;;;;;;;5051546;28;20140;-74
2022/03/10 12:44:03;;;;;;;4.78;2.42;;;;;;;;;;5052077;28;20039;-73
2022/03/10 12:46:32;;;;;;;4.97;2.33;;;;;;;;;;5032972;28;20406;-73
2022/03/10 12:49:08;;;;;;;8.30;2.50;;;;;;;;;;5032941;28;20060;-75
2022/03/10 12:51:38;;;;;;;4.13;2.50;;;;;;;;;;5033206;28;20087;-74
2022/03/10 12:54:09;;;;;;;6.68;2.75;;;;;;;;;;5051799;28;20040;-74
2022/03/10 12:56:47;;;;;;;3.65;2.60;;;;;;;;;;5051817;28;20052;-73
2022/03/10 12:59:25;;;;;;;3.65;2.40;;;;;;;;;;5034054;28;20044;-73
2022/03/10 13:01:54;;;;;;;3.97;2.50;;;;;;;;;;5052071;28;20037;-72
2022/03/10 13:04:22;;;;;;;4.22;2.20;;;;;;;;;;5052320;28;20099;-72
2022/03/10 13:06:50;;;;;;;2.97;2.17;;;;;;;;;;5033672;28;20065;-73
2022/03/10 13:09:23;;;;;;;7.43;2.50;;;;;;;;;;5051898;28;20037;-72
2022/03/10 13:11:56;;;;;;;4.53;2.58;;;;;;;;;;5051611;28;20048;-73
2022/03/10 13:14:24;;;;;;;3.50;2.45;;;;;;;;;;5052113;28;20455;-73
2022/03/10 13:16:52;;;;;;;3.40;2.08;;;;;;;;;;5051437;28;20543;-74
2022/03/10 13:19:24;;;;;;;2.75;2.30;;;;;;;;;;5032392;28;20413;-73
2022/03/10 13:21:52;;;;;;;2.42;2.22;;;;;;;;;;5040123;28;20038;-74
2022/03/10 13:24:39;;;;;;;6.28;2.50;;;;;;;;;;5041805;28;20128;-73
2022/03/10 13:27:09;;;;;;;4.22;2.67;;;;;;;;;;5023028;28;20520;-73
2022/03/10 13:29:38;;;;;;;7.25;2.60;;;;;;;;;;5041726;28;20048;-73
2022/03/10 13:32:06;;;;;;;4.43;2.17;;;;;;;;;;5043245;28;20042;-73
2022/03/10 13:34:34;;;;;;;5.75;2.30;;;;;;;;;;5040181;28;20042;-74
2022/03/10 13:37:02;;;;;;;4.35;2.25;;;;;;;;;;5030849;28;20041;-74
2022/03/10 13:39:30;;;;;;;3.42;2.00;;;;;;;;;;5030229;28;20037;-73
2022/03/10 13:41:58;;;;;;;4.35;2.38;;;;;;;;;;5038041;28;20527;-73
2022/03/10 13:44:28;;;;;;;10.18;2.45;;;;;;;;;;5048747;28;20402;-74
2022/03/10 13:47:09;;;;;;;6.50;2.60;;;;;;;;;;5046493;28;20065;-73
2022/03/10 13:49:42;;;;;;;10.40;2.40;;;;;;;;;;5043451;28;20041;-74
2022/03/10 13:52:11;;;;;;;8.55;2.90;;;;;;;;;;5041554;28;20044;-74
2022/03/10 13:54:39;;;;;;;16.35;2.70;;;;;;;;;;5037125;28;20053;-74
2022/03/10 13:57:07;;;;;;;6.80;2.80;;;;;;;;;;5051343;28;20041;-74
2022/03/10 13:59:34;;;;;;;4.35;2.42;;;;;;;;;;5041472;28;20504;-74
2022/03/10 14:02:02;;;;;;;3.58;2.28;;;;;;;;;;5045831;28;20097;-74
2022/03/10 14:04:36;;;;;;;5.80;2.30;;;;;;;;;;5042537;28;20044;-76
2022/03/10 14:07:09;;;;;;;8.07;3.10;;;;;;;;;;5020311;28;20479;-74
2022/03/10 14:09:41;;;;;;;3.90;2.20;;;;;;;;;;5047320;28;20036;-76
2022/03/10 14:12:22;;;;;;;4.80;2.33;;;;;;;;;;5048017;28;20147;-77
2022/03/10 14:14:52;;;;;;;2.47;2.10;;;;;;;;;;5042600;28;20041;-75
2022/03/10 14:17:21;;;;;;;3.72;2.35;;;;;;;;;;5040071;28;20049;-75
2022/03/10 14:19:48;;;;;;;8.00;2.65;;;;;;;;;;5042170;28;20116;-77
2022/03/10 14:22:24;;;;;;;4.72;3.65;;;;;;;;;;5049650;28;20424;-78
2022/03/10 14:24:59;;;;;;;6.07;3.17;;;;;;;;;;5045169;28;20505;-79
2022/03/10 14:27:27;;;;;;;3.08;2.03;;;;;;;;;;5052287;28;20037;-75
2022/03/10 14:30:00;;;;;;;3.42;1.90;;;;;;;;;;5049555;28;20485;-75
2022/03/10 14:32:29;;;;;;;5.40;2.13;;;;;;;;;;5049194;28;20115;-75
2022/03/10 14:35:00;;;;;;;5.53;2.30;;;;;;;;;;5047004;28;20041;-74
2022/03/10 14:37:29;;;;;;;4.47;2.42;;;;;;;;;;5037927;28;20413;-74
2022/03/10 14:39:59;;;;;;;5.40;2.30;;;;;;;;;;5026911;28;20049;-75
2022/03/10 14:42:30;;;;;;;16.27;3.00;;;;;;;;;;5049251;28;20120;-74
2022/03/10 14:44:58;;;;;;;3.38;2.30;;;;;;;;;;5049693;28;20029;-75
2022/03/10 14:47:26;;;;;;;5.10;2.85;;;;;;;;;;5033222;28;20033;-77
2022/03/10 14:49:55;;;;;;;4.93;2.60;;;;;;;;;;5053389;28;20042;-74
2022/03/10 14:52:22;;;;;;;7.05;2.55;;;;;;;;;;5053897;28;20063;-75
2022/03/10 14:54:50;;;;;;;3.28;2.40;;;;;;;;;;5048942;28;20098;-74
2022/03/10 14:57:18;;;;;;;14.25;3.92;;;;;;;;;;5045252;28;20504;-73
2022/03/10 14:59:46;;;;;;;5.65;2.72;;;;;;;;;;5042851;28;20042;-75
2022/03/10 15:02:15;;;;;;;9.63;2.80;;;;;;;;;;5047276;28;20037;-74